createdAt,value
2019-04-16T00:00:22.351Z,7.80
2019-04-16T00:02:53.224Z,7.80
2019-04-16T00:05:32.868Z,7.80
2019-04-16T00:08:09.735Z,7.80
2019-04-16T00:10:51.152Z,7.70
2019-04-16T00:13:28.208Z,7.70
2019-04-16T00:15:59.634Z,7.70
2019-04-16T00:18:28.821Z,7.60
2019-04-16T00:21:02.520Z,7.50
2019-04-16T00:23:42.465Z,7.50
2019-04-16T00:26:12.677Z,7.50
2019-04-16T00:28:41.848Z,7.50
2019-04-16T00:31:10.992Z,7.50
2019-04-16T00:33:42.696Z,7.50
2019-04-16T00:36:11.182Z,7.50
2019-04-16T00:38:41.224Z,7.50
2019-04-16T00:41:10.546Z,7.40
2019-04-16T00:43:39.746Z,7.40
2019-04-16T00:46:11.442Z,7.40
2019-04-16T00:48:39.754Z,7.40
2019-04-16T00:51:08.902Z,7.30
2019-04-16T00:53:39.096Z,7.30
2019-04-16T00:56:09.511Z,7.20
2019-04-16T00:58:38.839Z,7.20
2019-04-16T01:01:08.014Z,7.20
2019-04-16T01:03:37.260Z,7.10
2019-04-16T01:06:07.930Z,7.10
2019-04-16T01:08:37.373Z,7.10
2019-04-16T01:11:06.858Z,7.10
2019-04-16T01:13:36.194Z,7.00
2019-04-16T01:16:05.367Z,6.90
2019-04-16T01:18:38.533Z,6.90
2019-04-16T01:21:06.564Z,6.70
2019-04-16T01:23:35.821Z,6.60
2019-04-16T01:26:06.071Z,6.60
2019-04-16T01:28:42.912Z,6.50
2019-04-16T01:31:16.342Z,6.50
2019-04-16T01:33:53.026Z,6.40
2019-04-16T01:36:26.770Z,6.30
2019-04-16T01:39:14.831Z,6.10
2019-04-16T01:41:28.441Z,6.10
2019-04-16T01:43:58.210Z,6.00
2019-04-16T01:46:32.534Z,6.00
2019-04-16T01:48:58.519Z,5.90
2019-04-16T01:51:27.687Z,5.90
2019-04-16T01:53:57.047Z,5.70
2019-04-16T01:56:28.900Z,5.70
2019-04-16T01:58:57.209Z,5.70
2019-04-16T02:01:26.437Z,5.70
2019-04-16T02:03:55.621Z,5.70
2019-04-16T02:06:25.925Z,5.80
2019-04-16T02:08:55.643Z,5.80
2019-04-16T02:11:24.788Z,5.80
2019-04-16T02:13:53.963Z,5.80
2019-04-16T02:16:25.250Z,5.70
2019-04-16T02:18:53.992Z,5.70
2019-04-16T02:21:24.482Z,5.70
2019-04-16T02:23:53.692Z,5.70
2019-04-16T02:26:23.568Z,5.70
2019-04-16T02:28:53.370Z,5.70
2019-04-16T02:31:22.617Z,5.70
2019-04-16T02:33:51.947Z,5.70
2019-04-16T02:36:21.101Z,5.80
2019-04-16T02:38:53.194Z,5.80
2019-04-16T02:41:23.293Z,5.90
2019-04-16T02:43:51.986Z,5.80
2019-04-16T02:46:21.176Z,5.70
2019-04-16T02:48:51.642Z,5.70
2019-04-16T02:51:31.575Z,5.70
2019-04-16T02:54:15.368Z,5.70
2019-04-16T02:56:55.095Z,5.70
2019-04-16T02:59:31.656Z,5.70
2019-04-16T03:02:02.449Z,5.70
2019-04-16T03:04:36.226Z,5.60
2019-04-16T03:07:05.382Z,5.60
2019-04-16T03:09:34.543Z,5.60
2019-04-16T03:12:03.842Z,5.60
2019-04-16T03:14:32.977Z,5.50
2019-04-16T03:17:06.638Z,5.50
2019-04-16T03:19:38.867Z,5.40
2019-04-16T03:22:07.203Z,5.40
2019-04-16T03:24:40.215Z,5.30
2019-04-16T03:27:10.297Z,5.30
2019-04-16T03:29:39.534Z,5.20
2019-04-16T03:32:12.700Z,5.10
2019-04-16T03:34:39.620Z,5.00
2019-04-16T03:37:08.765Z,4.90
2019-04-16T03:39:37.916Z,4.90
2019-04-16T03:42:07.168Z,4.80
2019-04-16T03:44:37.372Z,4.80
2019-04-16T03:47:06.838Z,4.70
2019-04-16T03:49:37.056Z,4.60
2019-04-16T03:52:08.735Z,4.50
2019-04-16T03:54:37.090Z,4.40
2019-04-16T03:57:06.251Z,4.30
2019-04-16T03:59:35.422Z,4.30
2019-04-16T04:02:04.588Z,4.20
2019-04-16T04:04:34.812Z,4.20
2019-04-16T04:07:04.968Z,4.20
2019-04-16T04:09:34.132Z,4.30
2019-04-16T04:12:03.299Z,4.30
2019-04-16T04:14:32.464Z,4.50
2019-04-16T04:17:05.448Z,4.50
2019-04-16T04:19:32.510Z,4.60
2019-04-16T04:22:01.687Z,4.50
2019-04-16T04:24:31.389Z,4.60
2019-04-16T04:27:01.713Z,4.60
2019-04-16T04:29:30.962Z,4.70
2019-04-16T04:32:03.058Z,4.70
2019-04-16T04:34:30.984Z,4.70
2019-04-16T04:37:00.267Z,4.70
2019-04-16T04:39:29.504Z,4.60
2019-04-16T04:41:58.767Z,4.60
2019-04-16T04:44:28.021Z,4.50
2019-04-16T04:46:57.257Z,4.50
2019-04-16T04:49:30.098Z,4.40
2019-04-16T04:51:57.464Z,4.40
2019-04-16T04:54:26.620Z,4.40
2019-04-16T04:56:56.422Z,4.40
2019-04-16T04:59:26.723Z,4.40
2019-04-16T05:01:55.906Z,4.60
2019-04-16T05:04:32.695Z,4.70
2019-04-16T05:07:10.001Z,4.80
2019-04-16T05:09:39.244Z,4.90
2019-04-16T05:12:08.615Z,4.90
2019-04-16T05:14:39.493Z,5.00
2019-04-16T05:17:09.671Z,5.10
2019-04-16T05:19:38.844Z,5.10
2019-04-16T05:22:08.173Z,5.10
2019-04-16T05:24:41.101Z,5.20
2019-04-16T05:27:10.307Z,5.20
2019-04-16T05:29:39.873Z,5.30
2019-04-16T05:32:09.155Z,5.40
2019-04-16T05:34:38.519Z,5.60
2019-04-16T05:37:07.969Z,5.90
2019-04-16T05:39:37.141Z,6.20
2019-04-16T05:42:06.401Z,6.60
2019-04-16T05:44:35.641Z,6.90
2019-04-16T05:47:05.863Z,7.30
2019-04-16T05:49:35.053Z,7.60
2019-04-16T05:52:04.257Z,8.10
2019-04-16T05:54:35.093Z,8.60
2019-04-16T05:57:05.913Z,9.10
2019-04-16T05:59:35.060Z,9.50
2019-04-16T06:02:20.961Z,9.80
2019-04-16T06:04:50.112Z,10.00
2019-04-16T06:07:19.271Z,10.30
2019-04-16T06:09:48.474Z,10.60
2019-04-16T06:12:17.613Z,10.60
2019-04-16T06:14:53.978Z,10.10
2019-04-16T06:17:33.184Z,9.40
2019-04-16T06:20:13.212Z,8.90
2019-04-16T06:22:46.833Z,8.70
2019-04-16T06:25:34.176Z,8.50
2019-04-16T06:28:14.171Z,8.60
2019-04-16T06:30:45.007Z,9.40
2019-04-16T06:33:15.906Z,10.70
2019-04-16T06:36:02.620Z,11.90
2019-04-16T06:38:33.426Z,13.10
2019-04-16T06:41:07.166Z,14.30
2019-04-16T06:43:43.689Z,14.90
2019-04-16T06:46:18.575Z,15.10
2019-04-16T06:48:52.144Z,15.10
2019-04-16T06:51:43.646Z,15.50
2019-04-16T06:54:31.789Z,15.20
2019-04-16T06:56:59.215Z,15.90
2019-04-16T06:59:38.944Z,16.50
2019-04-16T07:02:15.725Z,17.10
2019-04-16T07:04:52.700Z,17.50
2019-04-16T07:07:39.896Z,18.10
2019-04-16T07:10:05.234Z,18.70
2019-04-16T07:12:37.915Z,18.70
2019-04-16T07:15:06.980Z,18.90
2019-04-16T07:17:36.280Z,19.00
2019-04-16T07:20:05.672Z,19.10
2019-04-16T07:22:34.837Z,18.90
2019-04-16T07:25:06.496Z,18.50
2019-04-16T07:27:38.604Z,18.20
2019-04-16T07:30:10.096Z,18.10
2019-04-16T07:32:43.871Z,17.90
2019-04-16T07:35:17.689Z,18.50
2019-04-16T07:38:06.944Z,18.90
2019-04-16T07:40:52.880Z,19.40
2019-04-16T07:43:40.296Z,19.90
2019-04-16T07:46:27.419Z,20.00
2019-04-16T07:48:58.260Z,19.50
2019-04-16T07:51:35.787Z,19.20
2019-04-16T07:54:04.561Z,19.90
2019-04-16T07:56:34.022Z,20.80
2019-04-16T07:59:03.196Z,21.30
2019-04-16T08:01:32.369Z,20.70
2019-04-16T08:04:03.042Z,20.30
2019-04-16T08:06:32.606Z,20.30
2019-04-16T08:09:01.801Z,20.60
2019-04-16T08:11:32.660Z,21.50
2019-04-16T08:14:01.833Z,22.00
2019-04-16T08:16:30.985Z,22.30
2019-04-16T08:19:00.153Z,22.20
2019-04-16T08:21:29.311Z,22.50
2019-04-16T08:24:03.231Z,22.60
2019-04-16T08:26:32.399Z,23.00
2019-04-16T08:29:02.039Z,22.50
2019-04-16T08:31:33.315Z,22.60
2019-04-16T08:34:02.629Z,22.10
2019-04-16T08:36:31.874Z,22.20
2019-04-16T08:39:05.888Z,22.80
2019-04-16T08:41:33.163Z,23.00
2019-04-16T08:44:03.532Z,23.10
2019-04-16T08:46:33.235Z,23.40
2019-04-16T08:49:02.587Z,24.00
2019-04-16T08:51:36.943Z,23.30
2019-04-16T08:54:02.645Z,23.30
2019-04-16T08:56:32.476Z,23.60
2019-04-16T08:59:01.779Z,23.80
2019-04-16T09:01:32.711Z,24.10
2019-04-16T09:04:03.009Z,24.40
2019-04-16T09:06:32.602Z,24.30
2019-04-16T09:09:12.862Z,24.70
2019-04-16T09:11:36.352Z,26.00
2019-04-16T09:14:07.042Z,27.20
2019-04-16T09:16:38.447Z,26.70
2019-04-16T09:19:20.766Z,25.60
2019-04-16T09:21:50.509Z,26.20
2019-04-16T09:24:19.734Z,27.80
2019-04-16T09:27:06.758Z,28.60
2019-04-16T09:29:54.845Z,29.00
2019-04-16T09:32:31.646Z,28.30
2019-04-16T09:35:10.986Z,28.70
2019-04-16T09:37:47.013Z,28.60
2019-04-16T09:40:29.944Z,28.90
2019-04-16T09:43:00.833Z,28.70
2019-04-16T09:45:29.985Z,28.20
2019-04-16T09:48:02.474Z,27.30
2019-04-16T09:50:30.239Z,26.90
2019-04-16T09:53:01.874Z,27.40
2019-04-16T09:55:30.332Z,28.50
2019-04-16T09:58:06.070Z,28.20
2019-04-16T10:00:33.650Z,27.40
2019-04-16T10:03:04.430Z,28.10
2019-04-16T10:05:33.655Z,28.30
2019-04-16T10:08:02.883Z,27.60
2019-04-16T10:10:32.057Z,27.20
2019-04-16T10:13:01.207Z,27.60
2019-04-16T10:15:30.510Z,27.90
2019-04-16T10:18:01.387Z,27.80
2019-04-16T10:20:31.722Z,27.80
2019-04-16T10:23:02.547Z,28.60
2019-04-16T10:25:33.685Z,29.80
2019-04-16T10:28:04.941Z,30.00
2019-04-16T10:30:36.607Z,28.60
2019-04-16T10:33:05.851Z,27.80
2019-04-16T10:35:35.201Z,28.30
2019-04-16T10:38:06.099Z,28.50
2019-04-16T10:40:42.941Z,29.10
2019-04-16T10:43:43.852Z,29.70
2019-04-16T10:46:09.790Z,30.00
2019-04-16T10:48:40.953Z,29.70
2019-04-16T10:51:29.893Z,30.10
2019-04-16T10:54:17.368Z,29.90
2019-04-16T10:57:03.757Z,29.90
2019-04-16T10:59:40.109Z,29.10
2019-04-16T11:02:28.893Z,29.00
2019-04-16T11:05:02.162Z,29.00
2019-04-16T11:07:32.184Z,28.30
2019-04-16T11:10:01.499Z,28.30
2019-04-16T11:12:30.762Z,28.70
2019-04-16T11:14:59.972Z,29.00
2019-04-16T11:17:29.183Z,28.30
2019-04-16T11:20:00.173Z,28.60
2019-04-16T11:22:29.283Z,29.90
2019-04-16T11:24:59.643Z,29.00
2019-04-16T11:27:28.943Z,28.50
2019-04-16T11:29:58.209Z,28.90
2019-04-16T11:32:29.086Z,29.80
2019-04-16T11:34:58.232Z,29.90
2019-04-16T11:37:27.578Z,29.10
2019-04-16T11:39:56.840Z,29.40
2019-04-16T11:42:26.082Z,29.90
2019-04-16T11:44:55.282Z,28.60
2019-04-16T11:47:27.803Z,28.50
2019-04-16T11:49:55.454Z,29.70
2019-04-16T11:52:24.625Z,30.70
2019-04-16T11:54:53.819Z,31.80
2019-04-16T11:57:23.124Z,32.10
2019-04-16T12:00:05.978Z,32.10
2019-04-16T12:02:24.911Z,31.30
2019-04-16T12:04:59.073Z,31.70
2019-04-16T12:07:40.506Z,32.20
2019-04-16T12:10:15.282Z,32.30
2019-04-16T12:12:52.194Z,32.00
2019-04-16T12:15:23.050Z,30.30
2019-04-16T12:17:53.884Z,29.30
2019-04-16T12:20:41.518Z,27.80
2019-04-16T12:23:12.680Z,27.90
2019-04-16T12:25:43.717Z,27.60
2019-04-16T12:28:14.570Z,26.50
2019-04-16T12:30:48.166Z,25.70
2019-04-16T12:33:19.033Z,26.30
2019-04-16T12:36:06.171Z,27.10
2019-04-16T12:38:37.031Z,28.90
2019-04-16T12:41:24.268Z,28.00
2019-04-16T12:43:58.069Z,26.30
2019-04-16T12:46:31.201Z,23.80
2019-04-16T12:49:02.088Z,22.80
2019-04-16T12:51:32.971Z,23.20
2019-04-16T12:54:25.283Z,25.20
2019-04-16T12:56:57.033Z,26.40
2019-04-16T12:59:27.877Z,26.30
2019-04-16T13:01:58.836Z,25.20
2019-04-16T13:04:29.682Z,24.30
2019-04-16T13:07:06.771Z,24.60
2019-04-16T13:09:44.116Z,25.50
2019-04-16T13:12:27.429Z,26.90
2019-04-16T13:15:04.709Z,25.40
2019-04-16T13:17:39.109Z,24.10
2019-04-16T13:20:29.310Z,23.00
2019-04-16T13:22:58.794Z,22.50
2019-04-16T13:25:44.676Z,22.20
2019-04-16T13:28:13.915Z,21.80
2019-04-16T13:30:43.201Z,22.70
2019-04-16T13:33:12.422Z,25.10
2019-04-16T13:35:41.671Z,27.40
2019-04-16T13:38:11.618Z,29.80
2019-04-16T13:40:41.699Z,30.50
2019-04-16T13:43:12.734Z,31.20
2019-04-16T13:45:42.095Z,31.80
2019-04-16T13:48:16.419Z,32.40
2019-04-16T13:50:45.435Z,32.10
2019-04-16T13:53:22.810Z,30.60
2019-04-16T13:55:55.212Z,28.20
2019-04-16T13:58:38.320Z,27.10
2019-04-16T14:01:15.351Z,26.40
2019-04-16T14:03:44.649Z,24.70
2019-04-16T14:06:13.868Z,23.80
2019-04-16T14:08:43.232Z,23.30
2019-04-16T14:11:12.402Z,23.30
2019-04-16T14:13:41.995Z,22.90
2019-04-16T14:16:13.892Z,22.80
2019-04-16T14:18:43.114Z,22.70
2019-04-16T14:21:12.571Z,22.60
2019-04-16T14:23:42.000Z,23.40
2019-04-16T14:26:11.420Z,23.80
2019-04-16T14:28:51.764Z,25.10
2019-04-16T14:31:16.358Z,26.20
2019-04-16T14:34:03.076Z,27.40
2019-04-16T14:36:32.390Z,27.70
2019-04-16T14:39:27.116Z,26.70
2019-04-16T14:41:56.567Z,25.10
2019-04-16T14:44:27.415Z,23.90
2019-04-16T14:47:00.093Z,22.90
2019-04-16T14:49:27.505Z,22.40
2019-04-16T14:51:58.032Z,21.90
2019-04-16T14:54:38.183Z,21.40
2019-04-16T14:57:10.925Z,21.10
2019-04-16T14:59:48.620Z,21.00
2019-04-16T15:02:29.106Z,21.90
2019-04-16T15:05:04.152Z,23.10
2019-04-16T15:07:38.061Z,24.80
2019-04-16T15:10:12.019Z,25.70
2019-04-16T15:12:45.586Z,25.90
2019-04-16T15:15:24.936Z,25.20
2019-04-16T15:17:55.834Z,23.60
2019-04-16T15:20:26.670Z,22.40
2019-04-16T15:23:06.757Z,21.60
2019-04-16T15:25:55.957Z,21.10
2019-04-16T15:28:43.273Z,20.60
2019-04-16T15:31:14.100Z,20.40
2019-04-16T15:33:44.918Z,20.20
2019-04-16T15:36:19.544Z,20.10
2019-04-16T15:39:04.041Z,19.90
2019-04-16T15:41:47.557Z,19.80
2019-04-16T15:44:24.323Z,19.60
2019-04-16T15:47:14.864Z,19.60
2019-04-16T15:50:03.712Z,19.40
2019-04-16T15:52:46.804Z,19.30
2019-04-16T15:55:17.764Z,19.20
2019-04-16T15:58:07.752Z,19.10
2019-04-16T16:00:40.151Z,19.10
2019-04-16T16:03:16.458Z,19.20
2019-04-16T16:05:51.074Z,19.40
2019-04-16T16:08:35.761Z,19.50
2019-04-16T16:11:06.047Z,19.50
2019-04-16T16:13:35.224Z,19.40
2019-04-16T16:16:04.512Z,19.30
2019-04-16T16:18:35.683Z,18.90
2019-04-16T16:21:04.646Z,18.60
2019-04-16T16:23:34.310Z,18.20
2019-04-16T16:26:03.755Z,18.00
2019-04-16T16:28:32.963Z,17.90
2019-04-16T16:31:02.428Z,17.90
2019-04-16T16:33:31.657Z,17.80
2019-04-16T16:36:00.963Z,18.00
2019-04-16T16:38:30.187Z,18.20
2019-04-16T16:40:59.420Z,18.40
2019-04-16T16:43:28.714Z,18.40
2019-04-16T16:45:59.623Z,18.50
2019-04-16T16:48:29.866Z,18.50
2019-04-16T16:50:59.053Z,18.20
2019-04-16T16:53:46.222Z,18.10
2019-04-16T16:56:17.094Z,18.10
2019-04-16T16:58:47.912Z,18.10
2019-04-16T17:01:18.753Z,18.10
2019-04-16T17:03:55.663Z,18.10
2019-04-16T17:06:26.624Z,18.00
2019-04-16T17:08:55.886Z,18.00
2019-04-16T17:11:25.142Z,18.00
2019-04-16T17:13:54.741Z,17.80
2019-04-16T17:16:24.189Z,17.80
2019-04-16T17:18:53.386Z,17.60
2019-04-16T17:21:22.544Z,17.50
2019-04-16T17:23:51.727Z,17.40
2019-04-16T17:26:20.888Z,17.30
2019-04-16T17:28:50.066Z,17.20
2019-04-16T17:31:19.384Z,17.10
2019-04-16T17:33:48.615Z,17.00
2019-04-16T17:36:17.829Z,17.00
2019-04-16T17:38:47.053Z,17.00
2019-04-16T17:41:17.851Z,16.90
2019-04-16T17:44:00.296Z,16.90
2019-04-16T17:46:39.413Z,16.80
2019-04-16T17:49:10.354Z,16.70
2019-04-16T17:51:50.062Z,16.70
2019-04-16T17:54:32.938Z,16.60
2019-04-16T17:57:18.885Z,16.60
2019-04-16T18:00:06.321Z,16.50
2019-04-16T18:02:40.689Z,16.40
2019-04-16T18:05:23.897Z,16.30
2019-04-16T18:07:54.711Z,16.30
2019-04-16T18:10:26.791Z,16.10
2019-04-16T18:13:10.061Z,16.00
2019-04-16T18:15:46.895Z,15.80
2019-04-16T18:18:29.549Z,15.70
2019-04-16T18:21:02.816Z,15.60
2019-04-16T18:23:35.982Z,15.60
2019-04-16T18:26:07.873Z,15.60
2019-04-16T18:28:47.896Z,15.50
2019-04-16T18:31:18.777Z,15.50
2019-04-16T18:33:49.586Z,15.50
2019-04-16T18:36:29.221Z,15.40
2019-04-16T18:39:05.266Z,15.40
2019-04-16T18:41:42.200Z,15.30
2019-04-16T18:44:29.587Z,15.30
2019-04-16T18:47:06.728Z,15.20
2019-04-16T18:49:37.052Z,15.10
2019-04-16T18:52:06.961Z,14.90
2019-04-16T18:54:36.467Z,14.90
2019-04-16T18:57:05.718Z,14.90
2019-04-16T18:59:35.976Z,14.80
2019-04-16T19:02:10.088Z,14.80
2019-04-16T19:04:39.350Z,14.70
2019-04-16T19:07:08.514Z,14.60
2019-04-16T19:09:37.673Z,14.50
2019-04-16T19:12:06.857Z,14.40
2019-04-16T19:14:36.677Z,14.40
2019-04-16T19:17:06.338Z,14.30
2019-04-16T19:19:36.445Z,14.30
2019-04-16T19:22:05.725Z,14.30
2019-04-16T19:24:34.979Z,14.20
2019-04-16T19:27:04.275Z,14.20
2019-04-16T19:29:33.498Z,14.20
2019-04-16T19:32:03.024Z,14.10
2019-04-16T19:34:32.363Z,14.20
2019-04-16T19:37:01.633Z,14.20
2019-04-16T19:39:30.923Z,14.00
2019-04-16T19:42:00.311Z,14.00
2019-04-16T19:44:33.314Z,13.90
2019-04-16T19:47:19.809Z,13.90
2019-04-16T19:49:49.086Z,13.80
2019-04-16T19:52:18.261Z,13.80
2019-04-16T19:54:47.452Z,13.70
2019-04-16T19:57:16.637Z,13.80
2019-04-16T19:59:47.362Z,13.80
2019-04-16T20:02:16.799Z,13.80
2019-04-16T20:04:46.121Z,13.80
2019-04-16T20:07:15.306Z,13.80
2019-04-16T20:09:44.773Z,13.80
2019-04-16T20:12:14.010Z,13.90
2019-04-16T20:14:43.178Z,13.90
2019-04-16T20:17:12.484Z,13.80
2019-04-16T20:20:00.755Z,13.70
2019-04-16T20:22:30.660Z,13.60
2019-04-16T20:25:00.005Z,13.60
2019-04-16T20:27:29.263Z,13.60
2019-04-16T20:29:58.473Z,13.70
2019-04-16T20:32:31.031Z,13.80
2019-04-16T20:34:59.789Z,14.00
2019-04-16T20:37:29.006Z,14.10
2019-04-16T20:39:58.260Z,14.20
2019-04-16T20:42:27.430Z,14.20
2019-04-16T20:44:56.648Z,14.20
2019-04-16T20:47:25.864Z,14.10
2019-04-16T20:49:55.052Z,14.10
2019-04-16T20:52:24.231Z,14.10
2019-04-16T20:54:54.270Z,14.10
2019-04-16T20:57:25.637Z,14.10
2019-04-16T20:59:54.335Z,14.10
2019-04-16T21:02:24.087Z,14.10
2019-04-16T21:04:53.216Z,14.00
2019-04-16T21:07:22.406Z,13.90
2019-04-16T21:09:52.004Z,13.70
2019-04-16T21:12:21.268Z,13.70
2019-04-16T21:14:50.922Z,13.60
2019-04-16T21:17:21.681Z,13.60
2019-04-16T21:19:50.850Z,13.50
2019-04-16T21:22:20.341Z,13.40
2019-04-16T21:24:49.533Z,13.30
2019-04-16T21:27:18.795Z,13.20
2019-04-16T21:29:47.955Z,13.20
2019-04-16T21:32:24.930Z,13.20
2019-04-16T21:35:11.098Z,13.20
2019-04-16T21:37:42.023Z,13.10
2019-04-16T21:40:11.219Z,13.00
2019-04-16T21:42:40.449Z,12.90
2019-04-16T21:45:09.619Z,12.80
2019-04-16T21:47:39.075Z,12.60
2019-04-16T21:50:08.548Z,12.50
2019-04-16T21:52:37.892Z,12.40
2019-04-16T21:55:07.361Z,12.30
2019-04-16T21:57:36.663Z,12.20
2019-04-16T22:00:08.853Z,12.20
2019-04-16T22:02:41.273Z,12.10
2019-04-16T22:05:11.324Z,12.10
2019-04-16T22:07:40.551Z,12.00
2019-04-16T22:10:09.861Z,12.00
2019-04-16T22:12:39.098Z,11.90
2019-04-16T22:15:08.271Z,11.80
2019-04-16T22:17:37.565Z,11.70
2019-04-16T22:20:07.113Z,11.60
2019-04-16T22:22:36.350Z,11.60
2019-04-16T22:25:06.244Z,11.60
2019-04-16T22:27:36.693Z,11.50
2019-04-16T22:30:06.829Z,11.50
2019-04-16T22:32:36.091Z,11.40
2019-04-16T22:35:06.731Z,11.30
2019-04-16T22:37:36.396Z,11.10
2019-04-16T22:40:13.629Z,11.00
2019-04-16T22:42:44.587Z,10.80
2019-04-16T22:45:31.928Z,10.80
2019-04-16T22:48:01.165Z,10.80
2019-04-16T22:50:30.347Z,10.80
2019-04-16T22:52:59.494Z,10.70
2019-04-16T22:55:28.782Z,10.80
2019-04-16T22:57:59.876Z,10.80
2019-04-16T23:00:30.497Z,10.80
2019-04-16T23:02:59.665Z,10.90
2019-04-16T23:05:31.009Z,10.90
2019-04-16T23:07:59.703Z,10.90
2019-04-16T23:10:28.967Z,11.00
2019-04-16T23:13:00.682Z,11.10
2019-04-16T23:15:29.484Z,11.10
2019-04-16T23:17:58.645Z,11.10
2019-04-16T23:20:29.720Z,11.10
2019-04-16T23:22:58.854Z,11.10
2019-04-16T23:25:28.273Z,11.20
2019-04-16T23:27:57.797Z,11.20
2019-04-16T23:30:27.006Z,11.20
2019-04-16T23:32:59.036Z,11.20
2019-04-16T23:35:27.041Z,11.20
2019-04-16T23:37:59.383Z,11.20
2019-04-16T23:40:28.730Z,11.20
2019-04-16T23:42:59.830Z,10.90
2019-04-16T23:45:31.475Z,10.50
2019-04-16T23:48:03.172Z,10.20
2019-04-16T23:50:44.887Z,10.00
2019-04-16T23:53:26.188Z,9.90
2019-04-16T23:56:00.212Z,9.80
2019-04-16T23:58:37.202Z,9.60
